Terminal Aerodrome Forecast
Issued by NWS Sterling, VA

Current Version | Previous Version | Text Only | Print | Product List | Glossary Off
Versions: 1 2 3 4 5 6 7 8 9 10 11 12 13

000
FTUS41 KLWX 172000 AAA
TAFMRB
TAF AMD
KMRB 172044Z 1721/1818 29012G20KT P6SM SCT050
     FM180400 30010KT P6SM FEW050
     FM181400 29012G20KT P6SM SCT040=

USA.gov is the U.S. government's official web portal to all federal, state and local government web resources and services.